sensor_id;sensor_type;location;lat;lon;timestamp;pressure;altitude;pressure_sealevel;temperature;humidity
46534;BME280;32260;52.008;4.752;2023-09-08T00:00:59;101742.13;;;21.62;61.14
46534;BME280;32260;52.008;4.752;2023-09-08T00:03:25;101743.16;;;21.60;61.87
46534;BME280;32260;52.008;4.752;2023-09-08T00:05:51;101737.88;;;21.58;61.55
46534;BME280;32260;52.008;4.752;2023-09-08T00:08:17;101734.28;;;21.58;61.89
46534;BME280;32260;52.008;4.752;2023-09-08T00:10:43;101735.16;;;21.58;61.74
46534;BME280;32260;52.008;4.752;2023-09-08T00:13:09;101740.63;;;21.57;61.79
46534;BME280;32260;52.008;4.752;2023-09-08T00:15:36;101743.38;;;21.55;62.30
46534;BME280;32260;52.008;4.752;2023-09-08T00:18:02;101747.09;;;21.53;61.93
46534;BME280;32260;52.008;4.752;2023-09-08T00:20:28;101755.19;;;21.53;62.19
46534;BME280;32260;52.008;4.752;2023-09-08T00:22:54;101746.28;;;21.50;62.11
46534;BME280;32260;52.008;4.752;2023-09-08T00:25:20;101757.97;;;21.51;61.97
46534;BME280;32260;52.008;4.752;2023-09-08T00:27:46;101742.81;;;21.48;62.29
46534;BME280;32260;52.008;4.752;2023-09-08T00:30:13;101754.47;;;21.49;62.04
46534;BME280;32260;52.008;4.752;2023-09-08T00:32:39;101761.75;;;21.47;62.19
46534;BME280;32260;52.008;4.752;2023-09-08T00:35:07;101752.72;;;21.48;61.56
46534;BME280;32260;52.008;4.752;2023-09-08T00:37:34;101759.06;;;21.47;62.22
46534;BME280;32260;52.008;4.752;2023-09-08T00:40:00;101754.66;;;21.46;62.10
46534;BME280;32260;52.008;4.752;2023-09-08T00:42:26;101757.34;;;21.46;61.81
46534;BME280;32260;52.008;4.752;2023-09-08T00:44:52;101758.28;;;21.45;62.42
46534;BME280;32260;52.008;4.752;2023-09-08T00:47:18;101755.59;;;21.45;62.34
46534;BME280;32260;52.008;4.752;2023-09-08T00:49:44;101757.34;;;21.46;62.06
46534;BME280;32260;52.008;4.752;2023-09-08T00:52:11;101748.38;;;21.45;62.29
46534;BME280;32260;52.008;4.752;2023-09-08T00:54:38;101752.91;;;21.45;62.53
46534;BME280;32260;52.008;4.752;2023-09-08T00:57:04;101756.53;;;21.44;61.86
46534;BME280;32260;52.008;4.752;2023-09-08T00:59:32;101755.69;;;21.43;62.55
46534;BME280;32260;52.008;4.752;2023-09-08T01:01:59;101754.78;;;21.43;62.09
46534;BME280;32260;52.008;4.752;2023-09-08T01:04:25;101756.69;;;21.41;62.45
46534;BME280;32260;52.008;4.752;2023-09-08T01:06:52;101754.97;;;21.40;62.38
46534;BME280;32260;52.008;4.752;2023-09-08T01:09:18;101753.22;;;21.39;62.83
46534;BME280;32260;52.008;4.752;2023-09-08T01:11:45;101756.84;;;21.38;61.85
46534;BME280;32260;52.008;4.752;2023-09-08T01:14:12;101755.09;;;21.37;62.11
46534;BME280;32260;52.008;4.752;2023-09-08T01:16:39;101758.81;;;21.34;61.69
46534;BME280;32260;52.008;4.752;2023-09-08T01:19:11;101749.72;;;21.37;61.92
46534;BME280;32260;52.008;4.752;2023-09-08T01:27:24;101753.34;;;21.36;62.03
46534;BME280;32260;52.008;4.752;2023-09-08T01:29:53;101751.59;;;21.34;62.03
46534;BME280;32260;52.008;4.752;2023-09-08T01:32:20;101749.06;;;21.31;62.50
46534;BME280;32260;52.008;4.752;2023-09-08T01:34:46;101755.50;;;21.29;62.34
46534;BME280;32260;52.008;4.752;2023-09-08T01:37:13;101746.69;;;21.25;62.44
46534;BME280;32260;52.008;4.752;2023-09-08T01:39:39;101753.13;;;21.23;62.89
46534;BME280;32260;52.008;4.752;2023-09-08T01:42:05;101755.91;;;21.21;62.58
46534;BME280;32260;52.008;4.752;2023-09-08T01:44:31;101753.34;;;21.18;62.72
46534;BME280;32260;52.008;4.752;2023-09-08T01:46:57;101752.56;;;21.16;62.01
46534;BME280;32260;52.008;4.752;2023-09-08T01:49:24;101763.47;;;21.13;62.66
46534;BME280;32260;52.008;4.752;2023-09-08T01:51:50;101753.63;;;21.12;62.33
46534;BME280;32260;52.008;4.752;2023-09-08T01:54:17;101757.38;;;21.09;62.93
46534;BME280;32260;52.008;4.752;2023-09-08T01:56:43;101763.78;;;21.07;63.00
46534;BME280;32260;52.008;4.752;2023-09-08T01:59:09;101752.19;;;21.05;62.76
46534;BME280;32260;52.008;4.752;2023-09-08T02:01:35;101744.28;;;21.01;63.06
46534;BME280;32260;52.008;4.752;2023-09-08T02:04:02;101751.56;;;20.99;63.20
46534;BME280;32260;52.008;4.752;2023-09-08T02:06:28;101749.81;;;20.98;62.98
46534;BME280;32260;52.008;4.752;2023-09-08T02:08:54;101749.97;;;20.95;62.77
46534;BME280;32260;52.008;4.752;2023-09-08T02:11:20;101741.09;;;20.93;62.92
46534;BME280;32260;52.008;4.752;2023-09-08T02:13:46;101739.38;;;20.92;63.38
46534;BME280;32260;52.008;4.752;2023-09-08T02:16:14;101743.00;;;20.91;62.38
46534;BME280;32260;52.008;4.752;2023-09-08T02:18:42;101740.34;;;20.90;63.17
46534;BME280;32260;52.008;4.752;2023-09-08T02:21:09;101739.66;;;20.86;62.84
46534;BME280;32260;52.008;4.752;2023-09-08T02:23:35;101743.31;;;20.85;63.41
46534;BME280;32260;52.008;4.752;2023-09-08T02:26:01;101743.44;;;20.82;63.05
46534;BME280;32260;52.008;4.752;2023-09-08T02:28:27;101747.06;;;20.81;63.07
46534;BME280;32260;52.008;4.752;2023-09-08T02:30:54;101747.16;;;20.79;62.97
46534;BME280;32260;52.008;4.752;2023-09-08T02:33:20;101748.09;;;20.78;62.83
46534;BME280;32260;52.008;4.752;2023-09-08T02:35:47;101747.25;;;20.78;62.88
46534;BME280;32260;52.008;4.752;2023-09-08T02:38:13;101742.88;;;20.75;62.83
46534;BME280;32260;52.008;4.752;2023-09-08T02:40:39;101745.66;;;20.74;63.51
46534;BME280;32260;52.008;4.752;2023-09-08T02:43:05;101740.38;;;20.71;63.43
46534;BME280;32260;52.008;4.752;2023-09-08T02:45:31;101747.63;;;20.68;63.57
46534;BME280;32260;52.008;4.752;2023-09-08T02:47:57;101749.53;;;20.66;63.11
46534;BME280;32260;52.008;4.752;2023-09-08T02:50:23;101742.41;;;20.65;63.02
46534;BME280;32260;52.008;4.752;2023-09-08T02:52:50;101747.00;;;20.63;63.73
46534;BME280;32260;52.008;4.752;2023-09-08T02:55:16;101747.06;;;20.62;63.81
46534;BME280;32260;52.008;4.752;2023-09-08T02:57:42;101746.34;;;20.58;64.14
46534;BME280;32260;52.008;4.752;2023-09-08T03:00:08;101750.94;;;20.56;64.12
46534;BME280;32260;52.008;4.752;2023-09-08T03:02:34;101757.19;;;20.57;63.79
46534;BME280;32260;52.008;4.752;2023-09-08T03:05:01;101751.81;;;20.57;63.79
46534;BME280;32260;52.008;4.752;2023-09-08T03:07:28;101753.63;;;20.56;63.83
46534;BME280;32260;52.008;4.752;2023-09-08T03:09:54;101748.38;;;20.53;64.41
46534;BME280;32260;52.008;4.752;2023-09-08T03:12:20;101750.25;;;20.51;64.02
46534;BME280;32260;52.008;4.752;2023-09-08T03:14:46;101739.66;;;20.48;64.18
46534;BME280;32260;52.008;4.752;2023-09-08T03:17:12;101739.66;;;20.48;63.35
46534;BME280;32260;52.008;4.752;2023-09-08T03:19:39;101739.78;;;20.45;64.13
46534;BME280;32260;52.008;4.752;2023-09-08T03:22:05;101731.78;;;20.43;64.53
46534;BME280;32260;52.008;4.752;2023-09-08T03:24:31;101742.63;;;20.42;64.45
46534;BME280;32260;52.008;4.752;2023-09-08T03:26:57;101732.97;;;20.38;65.14
46534;BME280;32260;52.008;4.752;2023-09-08T03:29:24;101729.47;;;20.35;64.70
46534;BME280;32260;52.008;4.752;2023-09-08T03:31:50;101732.25;;;20.34;63.84
46534;BME280;32260;52.008;4.752;2023-09-08T03:34:16;101732.28;;;20.32;64.80
46534;BME280;32260;52.008;4.752;2023-09-08T03:36:43;101721.53;;;20.32;64.12
46534;BME280;32260;52.008;4.752;2023-09-08T03:39:09;101716.22;;;20.31;63.73
46534;BME280;32260;52.008;4.752;2023-09-08T03:41:35;101727.06;;;20.29;64.57
46534;BME280;32260;52.008;4.752;2023-09-08T03:44:02;101723.50;;;20.29;64.11
46534;BME280;32260;52.008;4.752;2023-09-08T03:46:28;101713.78;;;20.26;64.63
46534;BME280;32260;52.008;4.752;2023-09-08T03:48:54;101717.41;;;20.25;64.50
46534;BME280;32260;52.008;4.752;2023-09-08T03:51:24;101715.66;;;20.24;64.17
46534;BME280;32260;52.008;4.752;2023-09-08T03:53:51;101719.28;;;20.23;64.25
46534;BME280;32260;52.008;4.752;2023-09-08T03:56:17;101716.59;;;20.23;63.74
46534;BME280;32260;52.008;4.752;2023-09-08T03:58:43;101720.31;;;20.20;64.39
46534;BME280;32260;52.008;4.752;2023-09-08T04:01:09;101709.63;;;20.19;64.78
46534;BME280;32260;52.008;4.752;2023-09-08T04:03:35;101712.31;;;20.19;64.17
46534;BME280;32260;52.008;4.752;2023-09-08T04:06:01;101716.88;;;20.17;64.55
46534;BME280;32260;52.008;4.752;2023-09-08T04:08:27;101717.91;;;20.14;64.73
46534;BME280;32260;52.008;4.752;2023-09-08T04:10:53;101715.28;;;20.13;64.51
46534;BME280;32260;52.008;4.752;2023-09-08T04:13:19;101714.47;;;20.11;64.46
46534;BME280;32260;52.008;4.752;2023-09-08T04:15:45;101714.47;;;20.11;64.43
46534;BME280;32260;52.008;4.752;2023-09-08T04:18:11;101713.59;;;20.10;64.23
46534;BME280;32260;52.008;4.752;2023-09-08T04:20:37;101713.66;;;20.09;64.72
46534;BME280;32260;52.008;4.752;2023-09-08T04:23:04;101711.94;;;20.08;63.97
46534;BME280;32260;52.008;4.752;2023-09-08T04:25:30;101704.88;;;20.05;64.33
46534;BME280;32260;52.008;4.752;2023-09-08T04:27:56;101716.50;;;20.06;64.25
46534;BME280;32260;52.008;4.752;2023-09-08T04:30:22;101709.38;;;20.04;64.27
46534;BME280;32260;52.008;4.752;2023-09-08T04:32:48;101716.63;;;20.02;64.13
46534;BME280;32260;52.008;4.752;2023-09-08T04:35:14;101718.47;;;20.02;64.52
46534;BME280;32260;52.008;4.752;2023-09-08T04:37:40;101714.91;;;20.01;64.69
46534;BME280;32260;52.008;4.752;2023-09-08T04:40:07;101718.53;;;20.00;64.40
46534;BME280;32260;52.008;4.752;2023-09-08T04:42:33;101715.97;;;19.97;64.96
46534;BME280;32260;52.008;4.752;2023-09-08T04:44:59;101709.72;;;19.97;64.41
46534;BME280;32260;52.008;4.752;2023-09-08T04:47:25;101713.44;;;19.94;64.31
46534;BME280;32260;52.008;4.752;2023-09-08T04:49:51;101718.94;;;19.91;64.41
46534;BME280;32260;52.008;4.752;2023-09-08T04:52:17;101718.94;;;19.91;63.83
46534;BME280;32260;52.008;4.752;2023-09-08T04:54:43;101715.38;;;19.91;64.18
46534;BME280;32260;52.008;4.752;2023-09-08T04:57:10;101715.47;;;19.89;64.76
46534;BME280;32260;52.008;4.752;2023-09-08T04:59:36;101719.09;;;19.88;64.15
46534;BME280;32260;52.008;4.752;2023-09-08T05:02:04;101719.09;;;19.88;64.69
46534;BME280;32260;52.008;4.752;2023-09-08T05:04:30;101722.72;;;19.87;64.48
46534;BME280;32260;52.008;4.752;2023-09-08T05:06:56;101723.56;;;19.87;64.88
46534;BME280;32260;52.008;4.752;2023-09-08T05:09:23;101726.34;;;19.86;65.06
46534;BME280;32260;52.008;4.752;2023-09-08T05:11:49;101729.03;;;19.86;64.84
46534;BME280;32260;52.008;4.752;2023-09-08T05:14:15;101729.03;;;19.86;64.86
46534;BME280;32260;52.008;4.752;2023-09-08T05:16:41;101729.03;;;19.86;65.01
46534;BME280;32260;52.008;4.752;2023-09-08T05:19:21;101726.34;;;19.86;65.13
46534;BME280;32260;52.008;4.752;2023-09-08T05:21:49;101729.94;;;19.86;65.22
46534;BME280;32260;52.008;4.752;2023-09-08T05:24:16;101731.72;;;19.86;65.07
46534;BME280;32260;52.008;4.752;2023-09-08T05:26:42;101728.09;;;19.87;65.00
46534;BME280;32260;52.008;4.752;2023-09-08T05:29:08;101735.22;;;19.88;64.81
46534;BME280;32260;52.008;4.752;2023-09-08T05:31:34;101732.47;;;19.90;64.96
46534;BME280;32260;52.008;4.752;2023-09-08T05:34:00;101735.06;;;19.91;64.86
46534;BME280;32260;52.008;4.752;2023-09-08T05:36:26;101722.53;;;19.92;64.59
46534;BME280;32260;52.008;4.752;2023-09-08T05:38:52;101731.44;;;19.92;64.88
46534;BME280;32260;52.008;4.752;2023-09-08T05:41:19;101731.38;;;19.94;64.90
46534;BME280;32260;52.008;4.752;2023-09-08T05:43:45;101738.50;;;19.95;64.71
46534;BME280;32260;52.008;4.752;2023-09-08T05:46:11;101735.78;;;19.96;64.61
46534;BME280;32260;52.008;4.752;2023-09-08T05:48:38;101738.31;;;19.99;64.57
46534;BME280;32260;52.008;4.752;2023-09-08T05:51:05;101741.81;;;20.01;64.49
46534;BME280;32260;52.008;4.752;2023-09-08T05:53:32;101743.53;;;20.02;64.61
46534;BME280;32260;52.008;4.752;2023-09-08T05:55:59;101759.63;;;20.04;64.42
46534;BME280;32260;52.008;4.752;2023-09-08T05:58:25;101747.91;;;20.05;64.88
46534;BME280;32260;52.008;4.752;2023-09-08T06:00:53;101752.28;;;20.08;64.27
46534;BME280;32260;52.008;4.752;2023-09-08T06:03:19;101754.81;;;20.11;64.96
46534;BME280;32260;52.008;4.752;2023-09-08T06:05:46;101752.94;;;20.13;64.87
46534;BME280;32260;52.008;4.752;2023-09-08T06:08:12;101751.00;;;20.16;64.73
46534;BME280;32260;52.008;4.752;2023-09-08T06:10:38;101757.09;;;20.20;64.37
46534;BME280;32260;52.008;4.752;2023-09-08T06:13:04;101759.66;;;20.23;64.48
46534;BME280;32260;52.008;4.752;2023-09-08T06:15:31;101763.06;;;20.27;64.82
46534;BME280;32260;52.008;4.752;2023-09-08T06:17:57;101766.50;;;20.30;64.78
46534;BME280;32260;52.008;4.752;2023-09-08T06:20:23;101763.66;;;20.33;65.04
46534;BME280;32260;52.008;4.752;2023-09-08T06:22:50;101767.00;;;20.39;64.40
46534;BME280;32260;52.008;4.752;2023-09-08T06:25:16;101763.22;;;20.43;64.60
46534;BME280;32260;52.008;4.752;2023-09-08T06:27:42;101771.97;;;20.48;64.53
46534;BME280;32260;52.008;4.752;2023-09-08T06:30:09;101764.53;;;20.53;64.60
46534;BME280;32260;52.008;4.752;2023-09-08T06:32:35;101768.81;;;20.57;64.56
46534;BME280;32260;52.008;4.752;2023-09-08T06:35:01;101768.53;;;20.63;64.39
46534;BME280;32260;52.008;4.752;2023-09-08T06:37:27;101776.31;;;20.69;64.51
46534;BME280;32260;52.008;4.752;2023-09-08T06:39:55;101770.66;;;20.76;64.45
46534;BME280;32260;52.008;4.752;2023-09-08T06:42:21;101764.13;;;20.81;64.17
46534;BME280;32260;52.008;4.752;2023-09-08T06:44:47;101768.31;;;20.87;64.47
46534;BME280;32260;52.008;4.752;2023-09-08T06:47:13;101766.31;;;20.92;64.69
46534;BME280;32260;52.008;4.752;2023-09-08T06:49:39;101766.13;;;20.95;64.63
46534;BME280;32260;52.008;4.752;2023-09-08T06:52:05;101773.09;;;20.99;64.72
46534;BME280;32260;52.008;4.752;2023-09-08T06:54:31;101755.78;;;21.05;64.42
46534;BME280;32260;52.008;4.752;2023-09-08T06:56:58;101768.00;;;21.12;64.24
46534;BME280;32260;52.008;4.752;2023-09-08T06:59:24;101768.56;;;21.19;64.20
46534;BME280;32260;52.008;4.752;2023-09-08T07:01:50;101773.56;;;21.27;64.14
46534;BME280;32260;52.008;4.752;2023-09-08T07:04:16;101772.31;;;21.34;64.28
46534;BME280;32260;52.008;4.752;2023-09-08T07:06:42;101768.50;;;21.38;64.73
46534;BME280;32260;52.008;4.752;2023-09-08T07:09:09;101770.97;;;21.43;64.21
46534;BME280;32260;52.008;4.752;2023-09-08T07:11:35;101770.72;;;21.47;64.59
46534;BME280;32260;52.008;4.752;2023-09-08T07:14:02;101771.28;;;21.54;64.64
46534;BME280;32260;52.008;4.752;2023-09-08T07:16:28;101762.13;;;21.58;65.21
46534;BME280;32260;52.008;4.752;2023-09-08T07:18:55;101766.22;;;21.65;64.82
46534;BME280;32260;52.008;4.752;2023-09-08T07:21:21;101768.56;;;21.73;64.57
46534;BME280;32260;52.008;4.752;2023-09-08T07:23:47;101767.34;;;21.79;64.87
46534;BME280;32260;52.008;4.752;2023-09-08T07:26:13;101773.28;;;21.86;64.63
46534;BME280;32260;52.008;4.752;2023-09-08T07:28:39;101769.28;;;21.93;64.94
46534;BME280;32260;52.008;4.752;2023-09-08T07:31:06;101763.47;;;22.01;64.85
46534;BME280;32260;52.008;4.752;2023-09-08T07:33:34;101763.09;;;22.08;64.75
46534;BME280;32260;52.008;4.752;2023-09-08T07:36:08;101769.53;;;22.22;64.53
46534;BME280;32260;52.008;4.752;2023-09-08T07:38:35;101770.44;;;22.22;65.22
46534;BME280;32260;52.008;4.752;2023-09-08T07:41:02;101774.38;;;22.33;64.38
46534;BME280;32260;52.008;4.752;2023-09-08T07:43:29;101767.72;;;22.40;64.24
46534;BME280;32260;52.008;4.752;2023-09-08T07:45:55;101773.47;;;22.50;64.10
46534;BME280;32260;52.008;4.752;2023-09-08T07:48:21;101774.25;;;22.52;64.95
46534;BME280;32260;52.008;4.752;2023-09-08T07:50:47;101776.34;;;22.62;63.82
46534;BME280;32260;52.008;4.752;2023-09-08T07:53:13;101770.44;;;22.72;63.85
46534;BME280;32260;52.008;4.752;2023-09-08T07:55:39;101771.66;;;22.82;63.83
46534;BME280;32260;52.008;4.752;2023-09-08T07:58:05;101771.13;;;22.91;63.96
46534;BME280;32260;52.008;4.752;2023-09-08T08:00:32;101767.00;;;23.00;63.56
46534;BME280;32260;52.008;4.752;2023-09-08T08:02:59;101772.75;;;23.10;63.71
46534;BME280;32260;52.008;4.752;2023-09-08T08:05:25;101773.81;;;23.23;63.34
46534;BME280;32260;52.008;4.752;2023-09-08T08:07:51;101767.84;;;23.33;63.29
46534;BME280;32260;52.008;4.752;2023-09-08T08:10:18;101764.63;;;23.42;63.06
46534;BME280;32260;52.008;4.752;2023-09-08T08:12:45;101766.75;;;23.51;62.99
46534;BME280;32260;52.008;4.752;2023-09-08T08:15:11;101760.81;;;23.61;63.24
46534;BME280;32260;52.008;4.752;2023-09-08T08:17:39;101760.91;;;23.73;62.62
46534;BME280;32260;52.008;4.752;2023-09-08T08:20:06;101765.78;;;23.83;62.35
46534;BME280;32260;52.008;4.752;2023-09-08T08:22:35;101761.66;;;23.92;62.15
46534;BME280;32260;52.008;4.752;2023-09-08T08:25:01;101758.38;;;24.01;62.29
46534;BME280;32260;52.008;4.752;2023-09-08T08:27:29;101755.84;;;24.12;62.21
46534;BME280;32260;52.008;4.752;2023-09-08T08:29:57;101758.38;;;24.15;62.45
46534;BME280;32260;52.008;4.752;2023-09-08T08:32:25;101757.28;;;24.32;61.84
46534;BME280;32260;52.008;4.752;2023-09-08T08:34:51;101757.50;;;24.44;61.90
46534;BME280;32260;52.008;4.752;2023-09-08T08:37:18;101754.88;;;24.57;61.61
46534;BME280;32260;52.008;4.752;2023-09-08T08:39:44;101763.38;;;24.65;61.74
46534;BME280;32260;52.008;4.752;2023-09-08T08:42:11;101767.81;;;24.80;60.95
46534;BME280;32260;52.008;4.752;2023-09-08T08:44:38;101761.75;;;24.90;61.05
46534;BME280;32260;52.008;4.752;2023-09-08T08:47:07;101771.78;;;25.02;60.80
46534;BME280;32260;52.008;4.752;2023-09-08T08:49:33;101768.47;;;25.11;61.19
46534;BME280;32260;52.008;4.752;2023-09-08T08:52:02;101763.19;;;25.23;60.70
46534;BME280;32260;52.008;4.752;2023-09-08T08:54:34;101765.09;;;25.35;60.72
46534;BME280;32260;52.008;4.752;2023-09-08T08:57:03;101762.41;;;25.48;60.35
46534;BME280;32260;52.008;4.752;2023-09-08T08:59:30;101768.84;;;25.60;60.16
46534;BME280;32260;52.008;4.752;2023-09-08T09:01:57;101771.81;;;25.70;60.30
46534;BME280;32260;52.008;4.752;2023-09-08T09:04:25;101775.28;;;25.84;60.05
46534;BME280;32260;52.008;4.752;2023-09-08T09:06:54;101770.94;;;25.95;59.32
46534;BME280;32260;52.008;4.752;2023-09-08T09:09:21;101776.50;;;26.06;59.39
46534;BME280;32260;52.008;4.752;2023-09-08T09:11:49;101768.34;;;26.19;59.52
46534;BME280;32260;52.008;4.752;2023-09-08T09:14:15;101772.88;;;26.31;58.67
46534;BME280;32260;52.008;4.752;2023-09-08T09:16:43;101768.44;;;26.43;58.43
46534;BME280;32260;52.008;4.752;2023-09-08T09:19:10;101764.81;;;26.56;58.48
46534;BME280;32260;52.008;4.752;2023-09-08T09:24:30;101774.44;;;26.86;58.19
46534;BME280;32260;52.008;4.752;2023-09-08T09:26:57;101771.25;;;26.92;58.03
46534;BME280;32260;52.008;4.752;2023-09-08T09:29:23;101766.00;;;27.02;57.64
46534;BME280;32260;52.008;4.752;2023-09-08T09:31:52;101767.66;;;27.16;57.66
46534;BME280;32260;52.008;4.752;2023-09-08T09:34:20;101759.53;;;27.27;57.66
46534;BME280;32260;52.008;4.752;2023-09-08T09:36:48;101762.31;;;27.38;57.43
46534;BME280;32260;52.008;4.752;2023-09-08T09:39:18;101770.31;;;27.53;57.28
46534;BME280;32260;52.008;4.752;2023-09-08T09:41:46;101765.00;;;27.63;57.08
46534;BME280;32260;52.008;4.752;2023-09-08T09:44:12;101764.91;;;27.75;56.64
46534;BME280;32260;52.008;4.752;2023-09-08T09:46:42;101763.19;;;27.86;56.36
46534;BME280;32260;52.008;4.752;2023-09-08T09:49:11;101759.22;;;28.01;56.65
46534;BME280;32260;52.008;4.752;2023-09-08T09:51:42;101759.31;;;28.13;56.58
46534;BME280;32260;52.008;4.752;2023-09-08T09:54:13;101757.28;;;28.26;56.42
46534;BME280;32260;52.008;4.752;2023-09-08T09:56:41;101755.56;;;28.36;55.78
46534;BME280;32260;52.008;4.752;2023-09-08T09:59:09;101758.28;;;28.48;56.10
46534;BME280;32260;52.008;4.752;2023-09-08T10:01:36;101756.53;;;28.58;55.63
46534;BME280;32260;52.008;4.752;2023-09-08T10:04:04;101756.66;;;28.68;54.54
46534;BME280;32260;52.008;4.752;2023-09-08T10:06:33;101752.03;;;28.80;54.87
46534;BME280;32260;52.008;4.752;2023-09-08T10:09:00;101747.81;;;28.87;54.05
46534;BME280;32260;52.008;4.752;2023-09-08T10:11:29;101751.09;;;29.02;54.26
46534;BME280;32260;52.008;4.752;2023-09-08T10:14:00;101750.34;;;29.11;54.14
46534;BME280;32260;52.008;4.752;2023-09-08T10:16:27;101747.81;;;29.19;53.90
46534;BME280;32260;52.008;4.752;2023-09-08T10:18:57;101760.72;;;29.29;54.00
46534;BME280;32260;52.008;4.752;2023-09-08T10:21:26;101752.47;;;29.40;54.11
46534;BME280;32260;52.008;4.752;2023-09-08T10:23:59;101748.91;;;29.49;54.34
46534;BME280;32260;52.008;4.752;2023-09-08T10:26:28;101752.00;;;29.56;53.27
46534;BME280;32260;52.008;4.752;2023-09-08T10:28:57;101751.94;;;29.67;53.45
46534;BME280;32260;52.008;4.752;2023-09-08T10:31:26;101753.00;;;29.76;52.68
46534;BME280;32260;52.008;4.752;2023-09-08T10:33:56;101754.19;;;29.83;51.76
46534;BME280;32260;52.008;4.752;2023-09-08T10:36:23;101750.06;;;29.89;51.60
46534;BME280;32260;52.008;4.752;2023-09-08T10:38:50;101752.00;;;29.98;52.54
46534;BME280;32260;52.008;4.752;2023-09-08T10:44:06;101745.59;;;30.19;51.19
46534;BME280;32260;52.008;4.752;2023-09-08T10:46:40;101741.75;;;30.31;51.28
46534;BME280;32260;52.008;4.752;2023-09-08T10:49:17;101733.19;;;30.46;51.24
46534;BME280;32260;52.008;4.752;2023-09-08T10:51:43;101737.97;;;30.54;51.17
46534;BME280;32260;52.008;4.752;2023-09-08T10:54:40;101743.19;;;30.76;50.55
46534;BME280;32260;52.008;4.752;2023-09-08T10:57:14;101737.56;;;30.78;48.86
46534;BME280;32260;52.008;4.752;2023-09-08T10:59:52;101742.22;;;30.87;50.00
46534;BME280;32260;52.008;4.752;2023-09-08T11:02:36;101743.06;;;30.97;50.30
46534;BME280;32260;52.008;4.752;2023-09-08T11:05:06;101745.97;;;30.96;48.90
46534;BME280;32260;52.008;4.752;2023-09-08T11:07:40;101742.25;;;31.07;49.58
46534;BME280;32260;52.008;4.752;2023-09-08T11:10:10;101741.97;;;31.10;48.91
46534;BME280;32260;52.008;4.752;2023-09-08T11:12:47;101741.53;;;31.24;49.37
46534;BME280;32260;52.008;4.752;2023-09-08T11:15:51;101749.00;;;31.42;48.87
46534;BME280;32260;52.008;4.752;2023-09-08T11:18:33;101743.66;;;31.40;45.85
46534;BME280;32260;52.008;4.752;2023-09-08T11:21:28;101742.06;;;31.57;46.89
46534;BME280;32260;52.008;4.752;2023-09-08T11:24:06;101747.94;;;31.62;48.47
46534;BME280;32260;52.008;4.752;2023-09-08T11:26:36;101742.22;;;31.66;46.75
46534;BME280;32260;52.008;4.752;2023-09-08T11:29:10;101739.47;;;31.75;46.60
46534;BME280;32260;52.008;4.752;2023-09-08T11:33:13;101741.53;;;31.91;43.71
46534;BME280;32260;52.008;4.752;2023-09-08T11:35:35;101740.94;;;31.98;45.31
46534;BME280;32260;52.008;4.752;2023-09-08T11:38:31;101741.47;;;32.11;42.89
46534;BME280;32260;52.008;4.752;2023-09-08T11:41:07;101750.03;;;32.08;42.98
46534;BME280;32260;52.008;4.752;2023-09-08T11:47:15;101737.97;;;32.29;41.99
46534;BME280;32260;52.008;4.752;2023-09-08T11:49:55;101735.28;;;32.47;43.55
46534;BME280;32260;52.008;4.752;2023-09-08T11:52:24;101738.47;;;32.42;42.18
46534;BME280;32260;52.008;4.752;2023-09-08T11:54:50;101739.44;;;32.51;42.20
46534;BME280;32260;52.008;4.752;2023-09-08T11:57:17;101740.09;;;32.63;41.59
46534;BME280;32260;52.008;4.752;2023-09-08T11:59:44;101730.91;;;32.72;40.91
46534;BME280;32260;52.008;4.752;2023-09-08T12:02:14;101731.03;;;32.80;42.37
46534;BME280;32260;52.008;4.752;2023-09-08T12:04:40;101736.31;;;32.92;41.54
46534;BME280;32260;52.008;4.752;2023-09-08T12:07:12;101728.13;;;33.00;42.06
46534;BME280;32260;52.008;4.752;2023-09-08T12:09:41;101729.94;;;33.09;40.75
46534;BME280;32260;52.008;4.752;2023-09-08T12:12:12;101728.97;;;33.18;41.45
46534;BME280;32260;52.008;4.752;2023-09-08T12:14:41;101730.78;;;33.28;40.73
46534;BME280;32260;52.008;4.752;2023-09-08T12:17:08;101736.53;;;33.34;40.01
46534;BME280;32260;52.008;4.752;2023-09-08T12:19:34;101734.16;;;33.39;40.54
46534;BME280;32260;52.008;4.752;2023-09-08T12:22:04;101729.22;;;33.43;38.41
46534;BME280;32260;52.008;4.752;2023-09-08T12:27:30;101725.81;;;33.49;39.45
46534;BME280;32260;52.008;4.752;2023-09-08T12:30:02;101722.81;;;33.61;39.53
46534;BME280;32260;52.008;4.752;2023-09-08T12:32:31;101725.63;;;33.69;39.02
46534;BME280;32260;52.008;4.752;2023-09-08T12:34:59;101719.47;;;33.75;38.71
46534;BME280;32260;52.008;4.752;2023-09-08T12:37:27;101715.69;;;33.76;38.88
46534;BME280;32260;52.008;4.752;2023-09-08T12:39:53;101712.16;;;33.84;39.74
46534;BME280;32260;52.008;4.752;2023-09-08T12:42:19;101713.00;;;33.84;38.03
46534;BME280;32260;52.008;4.752;2023-09-08T12:44:47;101708.06;;;33.88;38.75
46534;BME280;32260;52.008;4.752;2023-09-08T12:47:13;101709.50;;;34.00;38.59
46534;BME280;32260;52.008;4.752;2023-09-08T12:49:40;101710.06;;;34.12;37.94
46534;BME280;32260;52.008;4.752;2023-09-08T12:52:06;101698.06;;;34.13;37.24
46534;BME280;32260;52.008;4.752;2023-09-08T12:54:32;101704.06;;;34.17;37.36
46534;BME280;32260;52.008;4.752;2023-09-08T12:56:58;101706.13;;;34.23;37.69
46534;BME280;32260;52.008;4.752;2023-09-08T12:59:24;101703.16;;;34.34;38.29
46534;BME280;32260;52.008;4.752;2023-09-08T13:01:50;101699.88;;;34.39;37.21
46534;BME280;32260;52.008;4.752;2023-09-08T13:04:16;101701.25;;;34.35;36.87
46534;BME280;32260;52.008;4.752;2023-09-08T13:06:43;101700.22;;;34.44;37.84
46534;BME280;32260;52.008;4.752;2023-09-08T13:09:09;101695.94;;;34.50;37.23
46534;BME280;32260;52.008;4.752;2023-09-08T13:11:35;101696.47;;;34.54;37.94